sensor_id;sensor_type;location;lat;lon;timestamp;temperature;humidity
14119;DHT22;7138;49.246;9.100;2023-02-26T00:01:17;-0.90;99.90
14119;DHT22;7138;49.246;9.100;2023-02-26T00:03:47;-0.90;99.90
14119;DHT22;7138;49.246;9.100;2023-02-26T00:06:13;-0.90;99.90
14119;DHT22;7138;49.246;9.100;2023-02-26T00:08:39;-1.00;99.90
14119;DHT22;7138;49.246;9.100;2023-02-26T00:11:06;-1.00;99.90
14119;DHT22;7138;49.246;9.100;2023-02-26T00:13:33;-1.00;99.90
14119;DHT22;7138;49.246;9.100;2023-02-26T00:16:01;-1.10;99.90
14119;DHT22;7138;49.246;9.100;2023-02-26T00:18:29;-1.10;99.90
14119;DHT22;7138;49.246;9.100;2023-02-26T00:20:56;-1.10;99.90
14119;DHT22;7138;49.246;9.100;2023-02-26T00:23:22;-1.10;99.90
14119;DHT22;7138;49.246;9.100;2023-02-26T00:25:49;-1.10;99.90
14119;DHT22;7138;49.246;9.100;2023-02-26T00:28:15;-1.20;99.90
14119;DHT22;7138;49.246;9.100;2023-02-26T00:30:42;-1.30;99.90
14119;DHT22;7138;49.246;9.100;2023-02-26T00:33:08;-1.30;99.90
14119;DHT22;7138;49.246;9.100;2023-02-26T00:35:36;-1.30;99.90
14119;DHT22;7138;49.246;9.100;2023-02-26T00:38:04;-1.40;99.90
14119;DHT22;7138;49.246;9.100;2023-02-26T00:40:40;-1.40;99.90
14119;DHT22;7138;49.246;9.100;2023-02-26T00:43:14;-1.50;99.90
14119;DHT22;7138;49.246;9.100;2023-02-26T00:45:46;-1.50;99.90
14119;DHT22;7138;49.246;9.100;2023-02-26T00:48:29;-1.60;99.90
14119;DHT22;7138;49.246;9.100;2023-02-26T00:51:11;-1.60;99.90
14119;DHT22;7138;49.246;9.100;2023-02-26T00:53:46;-1.70;99.90
14119;DHT22;7138;49.246;9.100;2023-02-26T00:56:18;-1.60;99.90
14119;DHT22;7138;49.246;9.100;2023-02-26T00:58:44;-1.60;99.90
14119;DHT22;7138;49.246;9.100;2023-02-26T01:01:10;-1.70;99.90
14119;DHT22;7138;49.246;9.100;2023-02-26T01:03:36;-1.60;99.90
14119;DHT22;7138;49.246;9.100;2023-02-26T01:06:03;-1.60;99.90
14119;DHT22;7138;49.246;9.100;2023-02-26T01:08:41;-1.70;99.90
14119;DHT22;7138;49.246;9.100;2023-02-26T01:11:12;-1.70;99.90
14119;DHT22;7138;49.246;9.100;2023-02-26T01:13:39;-1.60;99.90
14119;DHT22;7138;49.246;9.100;2023-02-26T01:16:08;-1.50;99.90
14119;DHT22;7138;49.246;9.100;2023-02-26T01:18:42;-1.50;99.90
14119;DHT22;7138;49.246;9.100;2023-02-26T01:21:16;-1.60;99.90
14119;DHT22;7138;49.246;9.100;2023-02-26T01:23:51;-1.60;99.90
14119;DHT22;7138;49.246;9.100;2023-02-26T01:26:21;-1.60;99.90
14119;DHT22;7138;49.246;9.100;2023-02-26T01:28:49;-1.50;99.90
14119;DHT22;7138;49.246;9.100;2023-02-26T01:31:33;-1.70;99.90
14119;DHT22;7138;49.246;9.100;2023-02-26T01:34:07;-1.70;99.90
14119;DHT22;7138;49.246;9.100;2023-02-26T01:36:43;-1.80;99.90
14119;DHT22;7138;49.246;9.100;2023-02-26T01:39:25;-1.90;99.90
14119;DHT22;7138;49.246;9.100;2023-02-26T01:41:57;-1.90;99.90
14119;DHT22;7138;49.246;9.100;2023-02-26T01:44:33;-1.90;99.90
14119;DHT22;7138;49.246;9.100;2023-02-26T01:47:10;-1.90;99.90
14119;DHT22;7138;49.246;9.100;2023-02-26T01:49:42;-1.90;99.90
14119;DHT22;7138;49.246;9.100;2023-02-26T01:55:28;-2.00;99.90
14119;DHT22;7138;49.246;9.100;2023-02-26T01:57:56;-2.00;99.90
14119;DHT22;7138;49.246;9.100;2023-02-26T02:00:25;-1.90;99.90
14119;DHT22;7138;49.246;9.100;2023-02-26T02:02:50;-1.80;99.90
14119;DHT22;7138;49.246;9.100;2023-02-26T02:05:23;-1.90;99.90
14119;DHT22;7138;49.246;9.100;2023-02-26T02:07:52;-1.80;99.90
14119;DHT22;7138;49.246;9.100;2023-02-26T02:10:19;-1.80;99.90
14119;DHT22;7138;49.246;9.100;2023-02-26T02:12:50;-1.80;99.90
14119;DHT22;7138;49.246;9.100;2023-02-26T02:15:31;-1.90;99.90
14119;DHT22;7138;49.246;9.100;2023-02-26T02:18:08;-1.90;99.90
14119;DHT22;7138;49.246;9.100;2023-02-26T02:20:56;-2.00;99.90
14119;DHT22;7138;49.246;9.100;2023-02-26T02:23:41;-2.00;99.90
14119;DHT22;7138;49.246;9.100;2023-02-26T02:26:34;-2.10;99.90
14119;DHT22;7138;49.246;9.100;2023-02-26T02:32:38;-2.00;99.90
14119;DHT22;7138;49.246;9.100;2023-02-26T02:35:13;-2.10;99.90
14119;DHT22;7138;49.246;9.100;2023-02-26T02:37:45;-2.10;99.90
14119;DHT22;7138;49.246;9.100;2023-02-26T02:40:18;-2.10;99.90
14119;DHT22;7138;49.246;9.100;2023-02-26T02:42:50;-2.10;99.90
14119;DHT22;7138;49.246;9.100;2023-02-26T02:45:22;-2.10;99.90
14119;DHT22;7138;49.246;9.100;2023-02-26T02:47:57;-2.00;99.90
14119;DHT22;7138;49.246;9.100;2023-02-26T02:50:31;-2.00;99.90
14119;DHT22;7138;49.246;9.100;2023-02-26T02:53:05;-1.90;99.90
14119;DHT22;7138;49.246;9.100;2023-02-26T02:55:38;-1.90;99.90
14119;DHT22;7138;49.246;9.100;2023-02-26T02:58:11;-2.00;99.90
14119;DHT22;7138;49.246;9.100;2023-02-26T03:00:42;-2.00;99.90
14119;DHT22;7138;49.246;9.100;2023-02-26T03:03:18;-2.00;99.90
14119;DHT22;7138;49.246;9.100;2023-02-26T03:05:49;-1.90;99.90
14119;DHT22;7138;49.246;9.100;2023-02-26T03:08:19;-1.90;99.90
14119;DHT22;7138;49.246;9.100;2023-02-26T03:10:47;-1.90;99.90
14119;DHT22;7138;49.246;9.100;2023-02-26T03:13:15;-1.90;99.90
14119;DHT22;7138;49.246;9.100;2023-02-26T03:15:53;-2.00;99.90
14119;DHT22;7138;49.246;9.100;2023-02-26T03:18:34;-2.00;99.90
14119;DHT22;7138;49.246;9.100;2023-02-26T03:21:14;-2.00;99.90
14119;DHT22;7138;49.246;9.100;2023-02-26T03:23:48;-1.90;99.90
14119;DHT22;7138;49.246;9.100;2023-02-26T03:26:26;-1.90;99.90
14119;DHT22;7138;49.246;9.100;2023-02-26T03:29:01;-2.00;99.90
14119;DHT22;7138;49.246;9.100;2023-02-26T03:31:36;-1.90;99.90
14119;DHT22;7138;49.246;9.100;2023-02-26T03:34:13;-1.90;99.90
14119;DHT22;7138;49.246;9.100;2023-02-26T03:36:47;-1.90;99.90
14119;DHT22;7138;49.246;9.100;2023-02-26T03:39:22;-2.00;99.90
14119;DHT22;7138;49.246;9.100;2023-02-26T03:41:57;-2.00;99.90
14119;DHT22;7138;49.246;9.100;2023-02-26T03:44:31;-2.00;99.90
14119;DHT22;7138;49.246;9.100;2023-02-26T03:47:04;-2.00;99.90
14119;DHT22;7138;49.246;9.100;2023-02-26T03:49:38;-2.00;99.90
14119;DHT22;7138;49.246;9.100;2023-02-26T03:52:08;-1.90;99.90
14119;DHT22;7138;49.246;9.100;2023-02-26T03:54:38;-2.00;99.90
14119;DHT22;7138;49.246;9.100;2023-02-26T03:57:07;-2.10;99.90
14119;DHT22;7138;49.246;9.100;2023-02-26T03:59:34;-2.10;99.90
14119;DHT22;7138;49.246;9.100;2023-02-26T04:02:03;-2.20;99.90
14119;DHT22;7138;49.246;9.100;2023-02-26T04:04:40;-2.20;99.90
14119;DHT22;7138;49.246;9.100;2023-02-26T04:07:10;-2.20;99.90
14119;DHT22;7138;49.246;9.100;2023-02-26T04:09:39;-2.20;99.90
14119;DHT22;7138;49.246;9.100;2023-02-26T04:12:06;-2.30;99.90
14119;DHT22;7138;49.246;9.100;2023-02-26T04:14:32;-2.20;99.90
14119;DHT22;7138;49.246;9.100;2023-02-26T04:16:58;-2.30;99.90
14119;DHT22;7138;49.246;9.100;2023-02-26T04:19:24;-2.30;99.90
14119;DHT22;7138;49.246;9.100;2023-02-26T04:21:51;-2.30;99.90
14119;DHT22;7138;49.246;9.100;2023-02-26T04:24:17;-2.30;99.90
14119;DHT22;7138;49.246;9.100;2023-02-26T04:26:43;-2.40;99.90
14119;DHT22;7138;49.246;9.100;2023-02-26T04:29:09;-2.30;99.90
14119;DHT22;7138;49.246;9.100;2023-02-26T04:31:35;-2.30;99.90
14119;DHT22;7138;49.246;9.100;2023-02-26T04:34:01;-2.30;99.90
14119;DHT22;7138;49.246;9.100;2023-02-26T04:36:27;-2.30;99.90
14119;DHT22;7138;49.246;9.100;2023-02-26T04:38:55;-2.30;99.90
14119;DHT22;7138;49.246;9.100;2023-02-26T04:41:21;-2.40;99.90
14119;DHT22;7138;49.246;9.100;2023-02-26T04:43:47;-2.40;99.90
14119;DHT22;7138;49.246;9.100;2023-02-26T04:46:13;-2.50;99.90
14119;DHT22;7138;49.246;9.100;2023-02-26T04:48:39;-2.40;99.90
14119;DHT22;7138;49.246;9.100;2023-02-26T04:51:05;-2.40;99.90
14119;DHT22;7138;49.246;9.100;2023-02-26T04:53:31;-2.30;99.90
14119;DHT22;7138;49.246;9.100;2023-02-26T04:55:58;-2.30;99.90
14119;DHT22;7138;49.246;9.100;2023-02-26T04:58:24;-2.30;99.90
14119;DHT22;7138;49.246;9.100;2023-02-26T05:00:52;-2.30;99.90
14119;DHT22;7138;49.246;9.100;2023-02-26T05:03:21;-2.30;99.90
14119;DHT22;7138;49.246;9.100;2023-02-26T05:05:47;-2.40;99.90
14119;DHT22;7138;49.246;9.100;2023-02-26T05:08:13;-2.30;99.90
14119;DHT22;7138;49.246;9.100;2023-02-26T05:10:39;-2.40;99.90
14119;DHT22;7138;49.246;9.100;2023-02-26T05:13:06;-2.40;99.90
14119;DHT22;7138;49.246;9.100;2023-02-26T05:15:32;-2.30;99.90
14119;DHT22;7138;49.246;9.100;2023-02-26T05:17:59;-2.30;99.90
14119;DHT22;7138;49.246;9.100;2023-02-26T05:20:24;-2.30;99.90
14119;DHT22;7138;49.246;9.100;2023-02-26T05:22:50;-2.30;99.90
14119;DHT22;7138;49.246;9.100;2023-02-26T05:25:16;-2.40;99.90
14119;DHT22;7138;49.246;9.100;2023-02-26T05:27:42;-2.50;99.90
14119;DHT22;7138;49.246;9.100;2023-02-26T05:30:14;-2.50;99.90
14119;DHT22;7138;49.246;9.100;2023-02-26T05:32:41;-2.40;99.90
14119;DHT22;7138;49.246;9.100;2023-02-26T05:35:11;-2.40;99.90
14119;DHT22;7138;49.246;9.100;2023-02-26T05:37:38;-2.40;99.90
14119;DHT22;7138;49.246;9.100;2023-02-26T05:40:05;-2.50;99.90
14119;DHT22;7138;49.246;9.100;2023-02-26T05:42:35;-2.50;99.90
14119;DHT22;7138;49.246;9.100;2023-02-26T05:45:01;-2.50;99.90
14119;DHT22;7138;49.246;9.100;2023-02-26T05:47:28;-2.50;99.90
14119;DHT22;7138;49.246;9.100;2023-02-26T05:49:54;-2.60;99.90
14119;DHT22;7138;49.246;9.100;2023-02-26T05:52:20;-2.60;99.90
14119;DHT22;7138;49.246;9.100;2023-02-26T05:54:46;-2.60;99.90
14119;DHT22;7138;49.246;9.100;2023-02-26T05:57:11;-2.60;99.90
14119;DHT22;7138;49.246;9.100;2023-02-26T05:59:37;-2.60;99.90
14119;DHT22;7138;49.246;9.100;2023-02-26T06:02:03;-2.60;99.90
14119;DHT22;7138;49.246;9.100;2023-02-26T06:04:30;-2.50;99.90
14119;DHT22;7138;49.246;9.100;2023-02-26T06:06:56;-2.50;99.90
14119;DHT22;7138;49.246;9.100;2023-02-26T06:09:22;-2.60;99.90
14119;DHT22;7138;49.246;9.100;2023-02-26T06:11:48;-2.50;99.90
14119;DHT22;7138;49.246;9.100;2023-02-26T06:14:14;-2.60;99.90
14119;DHT22;7138;49.246;9.100;2023-02-26T06:16:40;-2.50;99.90
14119;DHT22;7138;49.246;9.100;2023-02-26T06:19:06;-2.50;99.90
14119;DHT22;7138;49.246;9.100;2023-02-26T06:21:33;-2.50;99.90
14119;DHT22;7138;49.246;9.100;2023-02-26T06:23:59;-2.50;99.90
14119;DHT22;7138;49.246;9.100;2023-02-26T06:26:24;-2.50;99.90
14119;DHT22;7138;49.246;9.100;2023-02-26T06:28:50;-2.40;99.90
14119;DHT22;7138;49.246;9.100;2023-02-26T06:31:16;-2.40;99.90
14119;DHT22;7138;49.246;9.100;2023-02-26T06:33:42;-2.40;99.90
14119;DHT22;7138;49.246;9.100;2023-02-26T06:36:08;-2.40;99.90
14119;DHT22;7138;49.246;9.100;2023-02-26T06:38:35;-2.40;99.90
14119;DHT22;7138;49.246;9.100;2023-02-26T06:41:01;-2.30;99.90
14119;DHT22;7138;49.246;9.100;2023-02-26T06:43:27;-2.20;99.90
14119;DHT22;7138;49.246;9.100;2023-02-26T06:45:56;-2.20;99.90
14119;DHT22;7138;49.246;9.100;2023-02-26T06:48:22;-2.10;99.90
14119;DHT22;7138;49.246;9.100;2023-02-26T06:50:48;-2.10;99.90
14119;DHT22;7138;49.246;9.100;2023-02-26T06:53:14;-2.00;99.90
14119;DHT22;7138;49.246;9.100;2023-02-26T06:55:43;-2.00;99.90
14119;DHT22;7138;49.246;9.100;2023-02-26T06:58:11;-2.00;99.90
14119;DHT22;7138;49.246;9.100;2023-02-26T07:00:38;-1.90;99.90
14119;DHT22;7138;49.246;9.100;2023-02-26T07:03:05;-1.80;99.90
14119;DHT22;7138;49.246;9.100;2023-02-26T07:05:31;-1.80;99.90
14119;DHT22;7138;49.246;9.100;2023-02-26T07:07:57;-1.80;99.90
14119;DHT22;7138;49.246;9.100;2023-02-26T07:10:23;-1.90;99.90
14119;DHT22;7138;49.246;9.100;2023-02-26T07:12:51;-1.90;99.90
14119;DHT22;7138;49.246;9.100;2023-02-26T07:15:17;-1.90;99.90
14119;DHT22;7138;49.246;9.100;2023-02-26T07:17:43;-1.90;99.90
14119;DHT22;7138;49.246;9.100;2023-02-26T07:20:10;-1.80;99.90
14119;DHT22;7138;49.246;9.100;2023-02-26T07:22:38;-1.80;99.90
14119;DHT22;7138;49.246;9.100;2023-02-26T07:25:05;-1.70;99.90
14119;DHT22;7138;49.246;9.100;2023-02-26T07:27:31;-1.60;99.90
14119;DHT22;7138;49.246;9.100;2023-02-26T07:29:59;-1.60;99.90
14119;DHT22;7138;49.246;9.100;2023-02-26T07:32:25;-1.50;99.90
14119;DHT22;7138;49.246;9.100;2023-02-26T07:34:51;-1.40;99.90
14119;DHT22;7138;49.246;9.100;2023-02-26T07:37:17;-1.30;99.90
14119;DHT22;7138;49.246;9.100;2023-02-26T07:39:44;-1.30;99.90
14119;DHT22;7138;49.246;9.100;2023-02-26T07:42:10;-1.30;99.90
14119;DHT22;7138;49.246;9.100;2023-02-26T07:44:36;-1.20;99.90
14119;DHT22;7138;49.246;9.100;2023-02-26T07:47:04;-1.20;99.90
14119;DHT22;7138;49.246;9.100;2023-02-26T07:49:30;-1.20;99.90
14119;DHT22;7138;49.246;9.100;2023-02-26T07:51:57;-1.10;99.90
14119;DHT22;7138;49.246;9.100;2023-02-26T07:54:22;-1.10;99.90
14119;DHT22;7138;49.246;9.100;2023-02-26T07:56:48;-1.00;99.90
14119;DHT22;7138;49.246;9.100;2023-02-26T07:59:15;-1.00;99.90
14119;DHT22;7138;49.246;9.100;2023-02-26T08:01:41;-0.90;99.90
14119;DHT22;7138;49.246;9.100;2023-02-26T08:04:08;-0.90;99.90
14119;DHT22;7138;49.246;9.100;2023-02-26T08:06:34;-0.90;99.90
14119;DHT22;7138;49.246;9.100;2023-02-26T08:09:00;-0.70;99.90
14119;DHT22;7138;49.246;9.100;2023-02-26T08:11:26;-0.50;99.90
14119;DHT22;7138;49.246;9.100;2023-02-26T08:13:52;-0.20;99.90
14119;DHT22;7138;49.246;9.100;2023-02-26T08:16:18;-0.20;99.90
14119;DHT22;7138;49.246;9.100;2023-02-26T08:18:44;0.10;99.90
14119;DHT22;7138;49.246;9.100;2023-02-26T08:21:11;0.10;99.90
14119;DHT22;7138;49.246;9.100;2023-02-26T08:23:37;0.10;99.90
14119;DHT22;7138;49.246;9.100;2023-02-26T08:26:06;0.00;99.90
14119;DHT22;7138;49.246;9.100;2023-02-26T08:28:33;0.00;99.90
14119;DHT22;7138;49.246;9.100;2023-02-26T08:31:00;0.00;99.90
14119;DHT22;7138;49.246;9.100;2023-02-26T08:33:26;0.00;99.90
14119;DHT22;7138;49.246;9.100;2023-02-26T08:35:52;0.10;99.90
14119;DHT22;7138;49.246;9.100;2023-02-26T08:38:21;0.10;99.90
14119;DHT22;7138;49.246;9.100;2023-02-26T08:40:48;0.50;99.90
14119;DHT22;7138;49.246;9.100;2023-02-26T08:43:14;0.60;99.90
14119;DHT22;7138;49.246;9.100;2023-02-26T08:45:40;0.60;99.90
14119;DHT22;7138;49.246;9.100;2023-02-26T08:48:06;0.70;99.90
14119;DHT22;7138;49.246;9.100;2023-02-26T08:50:31;0.70;99.90
14119;DHT22;7138;49.246;9.100;2023-02-26T08:52:57;0.70;99.90
14119;DHT22;7138;49.246;9.100;2023-02-26T08:55:24;0.70;99.90
14119;DHT22;7138;49.246;9.100;2023-02-26T08:57:50;0.60;99.90
14119;DHT22;7138;49.246;9.100;2023-02-26T09:00:17;0.50;99.90
14119;DHT22;7138;49.246;9.100;2023-02-26T09:02:44;0.40;99.90
14119;DHT22;7138;49.246;9.100;2023-02-26T09:05:10;0.30;99.90
14119;DHT22;7138;49.246;9.100;2023-02-26T09:07:36;0.30;99.90
14119;DHT22;7138;49.246;9.100;2023-02-26T09:10:04;0.30;99.90
14119;DHT22;7138;49.246;9.100;2023-02-26T09:12:32;0.40;99.90
14119;DHT22;7138;49.246;9.100;2023-02-26T09:15:01;0.30;99.90
14119;DHT22;7138;49.246;9.100;2023-02-26T09:17:28;0.30;99.90
14119;DHT22;7138;49.246;9.100;2023-02-26T09:19:54;0.40;99.90
14119;DHT22;7138;49.246;9.100;2023-02-26T09:22:20;0.50;99.90
14119;DHT22;7138;49.246;9.100;2023-02-26T09:24:46;0.50;99.90
14119;DHT22;7138;49.246;9.100;2023-02-26T09:27:12;0.50;99.90
14119;DHT22;7138;49.246;9.100;2023-02-26T09:29:39;0.40;99.90
14119;DHT22;7138;49.246;9.100;2023-02-26T09:32:05;0.40;99.90
14119;DHT22;7138;49.246;9.100;2023-02-26T09:34:32;0.30;99.90
14119;DHT22;7138;49.246;9.100;2023-02-26T09:36:58;0.50;99.90
14119;DHT22;7138;49.246;9.100;2023-02-26T09:39:24;0.50;99.90
14119;DHT22;7138;49.246;9.100;2023-02-26T09:41:53;0.30;99.90
14119;DHT22;7138;49.246;9.100;2023-02-26T09:44:22;0.40;99.90
14119;DHT22;7138;49.246;9.100;2023-02-26T09:46:59;0.40;99.90
14119;DHT22;7138;49.246;9.100;2023-02-26T09:49:38;0.40;99.90
14119;DHT22;7138;49.246;9.100;2023-02-26T09:52:17;0.50;99.90
14119;DHT22;7138;49.246;9.100;2023-02-26T09:54:50;0.60;99.90
14119;DHT22;7138;49.246;9.100;2023-02-26T09:57:26;0.60;99.90
14119;DHT22;7138;49.246;9.100;2023-02-26T09:59:55;0.60;99.90
14119;DHT22;7138;49.246;9.100;2023-02-26T10:02:35;0.70;99.90
14119;DHT22;7138;49.246;9.100;2023-02-26T10:05:17;0.70;99.90
14119;DHT22;7138;49.246;9.100;2023-02-26T10:07:54;0.70;99.90
14119;DHT22;7138;49.246;9.100;2023-02-26T10:10:31;0.80;99.90
14119;DHT22;7138;49.246;9.100;2023-02-26T10:13:03;0.70;99.90
14119;DHT22;7138;49.246;9.100;2023-02-26T10:15:34;0.60;99.90
14119;DHT22;7138;49.246;9.100;2023-02-26T10:18:09;0.60;99.90
14119;DHT22;7138;49.246;9.100;2023-02-26T10:20:42;0.60;99.90
14119;DHT22;7138;49.246;9.100;2023-02-26T10:23:22;0.50;99.90
14119;DHT22;7138;49.246;9.100;2023-02-26T10:25:57;0.50;99.90
14119;DHT22;7138;49.246;9.100;2023-02-26T10:28:42;0.40;99.90
14119;DHT22;7138;49.246;9.100;2023-02-26T10:31:21;0.40;99.90
14119;DHT22;7138;49.246;9.100;2023-02-26T10:34:00;0.50;99.90
14119;DHT22;7138;49.246;9.100;2023-02-26T10:36:41;0.40;99.90
14119;DHT22;7138;49.246;9.100;2023-02-26T10:39:23;0.30;99.90
14119;DHT22;7138;49.246;9.100;2023-02-26T10:41:58;0.20;99.90
14119;DHT22;7138;49.246;9.100;2023-02-26T10:44:34;0.20;99.90
14119;DHT22;7138;49.246;9.100;2023-02-26T10:47:11;0.30;99.90
14119;DHT22;7138;49.246;9.100;2023-02-26T10:49:51;0.50;99.90
14119;DHT22;7138;49.246;9.100;2023-02-26T10:52:20;0.60;99.90
14119;DHT22;7138;49.246;9.100;2023-02-26T10:55:04;0.60;99.90
14119;DHT22;7138;49.246;9.100;2023-02-26T10:57:54;0.80;99.90
14119;DHT22;7138;49.246;9.100;2023-02-26T11:00:24;1.00;99.90
14119;DHT22;7138;49.246;9.100;2023-02-26T11:02:52;1.10;99.90
14119;DHT22;7138;49.246;9.100;2023-02-26T11:05:23;1.00;99.90
14119;DHT22;7138;49.246;9.100;2023-02-26T11:07:54;1.10;99.90
14119;DHT22;7138;49.246;9.100;2023-02-26T11:10:24;1.10;99.90
14119;DHT22;7138;49.246;9.100;2023-02-26T11:12:52;1.00;99.90
14119;DHT22;7138;49.246;9.100;2023-02-26T11:15:20;1.00;99.90
14119;DHT22;7138;49.246;9.100;2023-02-26T11:17:53;1.00;99.90
14119;DHT22;7138;49.246;9.100;2023-02-26T11:20:29;0.90;99.90
14119;DHT22;7138;49.246;9.100;2023-02-26T11:23:02;0.90;99.90
14119;DHT22;7138;49.246;9.100;2023-02-26T11:25:31;0.80;99.90
14119;DHT22;7138;49.246;9.100;2023-02-26T11:28:01;0.80;99.90
14119;DHT22;7138;49.246;9.100;2023-02-26T11:30:34;0.90;99.90
14119;DHT22;7138;49.246;9.100;2023-02-26T11:33:10;1.00;99.90
14119;DHT22;7138;49.246;9.100;2023-02-26T11:35:44;1.10;99.90
14119;DHT22;7138;49.246;9.100;2023-02-26T11:38:16;1.20;99.90
14119;DHT22;7138;49.246;9.100;2023-02-26T11:40:47;1.40;99.90
14119;DHT22;7138;49.246;9.100;2023-02-26T11:43:19;1.40;99.90
14119;DHT22;7138;49.246;9.100;2023-02-26T11:45:51;1.40;99.90
14119;DHT22;7138;49.246;9.100;2023-02-26T11:48:23;1.30;99.90
14119;DHT22;7138;49.246;9.100;2023-02-26T11:50:56;1.30;99.90
14119;DHT22;7138;49.246;9.100;2023-02-26T11:53:30;1.40;99.90
14119;DHT22;7138;49.246;9.100;2023-02-26T11:55:59;1.50;99.90
14119;DHT22;7138;49.246;9.100;2023-02-26T11:58:27;1.40;99.90
14119;DHT22;7138;49.246;9.100;2023-02-26T12:00:57;1.40;99.90
14119;DHT22;7138;49.246;9.100;2023-02-26T12:03:28;1.40;99.90
14119;DHT22;7138;49.246;9.100;2023-02-26T12:06:00;1.40;99.90
14119;DHT22;7138;49.246;9.100;2023-02-26T12:08:30;1.50;99.90
14119;DHT22;7138;49.246;9.100;2023-02-26T12:11:14;1.50;99.90
14119;DHT22;7138;49.246;9.100;2023-02-26T12:14:03;1.60;99.90
14119;DHT22;7138;49.246;9.100;2023-02-26T12:16:45;1.50;99.90
14119;DHT22;7138;49.246;9.100;2023-02-26T12:19:25;1.70;99.90
14119;DHT22;7138;49.246;9.100;2023-02-26T12:22:23;1.80;99.90
14119;DHT22;7138;49.246;9.100;2023-02-26T12:25:20;1.80;99.90
14119;DHT22;7138;49.246;9.100;2023-02-26T12:28:07;1.80;99.90
14119;DHT22;7138;49.246;9.100;2023-02-26T12:31:07;1.80;99.90
14119;DHT22;7138;49.246;9.100;2023-02-26T12:33:52;1.60;99.90
14119;DHT22;7138;49.246;9.100;2023-02-26T12:36:31;1.60;99.90
14119;DHT22;7138;49.246;9.100;2023-02-26T12:39:30;1.60;99.90
14119;DHT22;7138;49.246;9.100;2023-02-26T12:42:17;1.80;99.90
14119;DHT22;7138;49.246;9.100;2023-02-26T12:45:06;1.80;99.90
14119;DHT22;7138;49.246;9.100;2023-02-26T12:47:59;2.00;99.90
14119;DHT22;7138;49.246;9.100;2023-02-26T12:50:51;2.20;99.90
14119;DHT22;7138;49.246;9.100;2023-02-26T12:53:35;2.00;99.90
14119;DHT22;7138;49.246;9.100;2023-02-26T12:56:39;2.10;99.90
14119;DHT22;7138;49.246;9.100;2023-02-26T12:59:31;2.20;99.90
14119;DHT22;7138;49.246;9.100;2023-02-26T13:02:26;2.30;99.90
14119;DHT22;7138;49.246;9.100;2023-02-26T13:05:18;2.30;99.90
14119;DHT22;7138;49.246;9.100;2023-02-26T13:08:06;2.40;99.90
14119;DHT22;7138;49.246;9.100;2023-02-26T13:10:50;2.40;99.90
14119;DHT22;7138;49.246;9.100;2023-02-26T13:13:39;2.30;99.90
14119;DHT22;7138;49.246;9.100;2023-02-26T13:16:21;2.10;99.90
14119;DHT22;7138;49.246;9.100;2023-02-26T13:19:19;2.00;99.90
14119;DHT22;7138;49.246;9.100;2023-02-26T13:21:54;1.90;99.90
14119;DHT22;7138;49.246;9.100;2023-02-26T13:24:27;2.00;99.90
14119;DHT22;7138;49.246;9.100;2023-02-26T13:27:01;2.00;99.90
14119;DHT22;7138;49.246;9.100;2023-02-26T13:29:35;2.00;99.90
14119;DHT22;7138;49.246;9.100;2023-02-26T13:32:09;2.00;99.90
14119;DHT22;7138;49.246;9.100;2023-02-26T13:34:42;2.20;99.90
14119;DHT22;7138;49.246;9.100;2023-02-26T13:37:21;2.20;99.90
14119;DHT22;7138;49.246;9.100;2023-02-26T13:39:58;2.00;99.90
14119;DHT22;7138;49.246;9.100;2023-02-26T13:42:40;2.10;99.90
14119;DHT22;7138;49.246;9.100;2023-02-26T13:45:26;2.20;99.90
14119;DHT22;7138;49.246;9.100;2023-02-26T13:48:12;2.20;99.90
14119;DHT22;7138;49.246;9.100;2023-02-26T13:50:52;2.40;99.90
14119;DHT22;7138;49.246;9.100;2023-02-26T13:56:42;2.40;99.90
14119;DHT22;7138;49.246;9.100;2023-02-26T13:59:35;2.40;99.90
14119;DHT22;7138;49.246;9.100;2023-02-26T14:02:35;2.30;99.90
14119;DHT22;7138;49.246;9.100;2023-02-26T14:05:35;2.40;99.90
14119;DHT22;7138;49.246;9.100;2023-02-26T14:08:26;2.40;99.90
14119;DHT22;7138;49.246;9.100;2023-02-26T14:11:32;2.30;99.90
14119;DHT22;7138;49.246;9.100;2023-02-26T14:14:22;2.30;99.90
14119;DHT22;7138;49.246;9.100;2023-02-26T14:20:17;2.50;99.90
14119;DHT22;7138;49.246;9.100;2023-02-26T14:22:52;2.30;99.90
14119;DHT22;7138;49.246;9.100;2023-02-26T14:25:37;2.20;99.90
14119;DHT22;7138;49.246;9.100;2023-02-26T14:28:32;1.90;99.90
14119;DHT22;7138;49.246;9.100;2023-02-26T14:31:23;1.70;99.90
14119;DHT22;7138;49.246;9.100;2023-02-26T14:34:07;1.70;99.90
14119;DHT22;7138;49.246;9.100;2023-02-26T14:36:44;2.00;99.90
14119;DHT22;7138;49.246;9.100;2023-02-26T14:39:23;2.40;99.90
14119;DHT22;7138;49.246;9.100;2023-02-26T14:41:57;2.70;99.90
14119;DHT22;7138;49.246;9.100;2023-02-26T14:44:29;3.00;99.90
14119;DHT22;7138;49.246;9.100;2023-02-26T14:46:59;3.10;99.90
14119;DHT22;7138;49.246;9.100;2023-02-26T14:49:29;3.40;99.90
14119;DHT22;7138;49.246;9.100;2023-02-26T14:52:10;3.50;99.90
14119;DHT22;7138;49.246;9.100;2023-02-26T14:55:07;2.90;99.90
14119;DHT22;7138;49.246;9.100;2023-02-26T14:57:47;2.60;99.90
14119;DHT22;7138;49.246;9.100;2023-02-26T15:00:29;2.30;99.90
14119;DHT22;7138;49.246;9.100;2023-02-26T15:03:20;2.20;99.90
14119;DHT22;7138;49.246;9.100;2023-02-26T15:06:26;2.20;99.90
14119;DHT22;7138;49.246;9.100;2023-02-26T15:09:16;2.00;99.90
14119;DHT22;7138;49.246;9.100;2023-02-26T15:11:56;2.00;99.90
14119;DHT22;7138;49.246;9.100;2023-02-26T15:14:57;2.00;99.90
14119;DHT22;7138;49.246;9.100;2023-02-26T15:17:42;1.90;99.90
14119;DHT22;7138;49.246;9.100;2023-02-26T15:20:26;1.90;99.90
14119;DHT22;7138;49.246;9.100;2023-02-26T15:23:23;1.80;99.90
14119;DHT22;7138;49.246;9.100;2023-02-26T15:25:59;1.80;99.90
14119;DHT22;7138;49.246;9.100;2023-02-26T15:28:30;1.80;99.90
14119;DHT22;7138;49.246;9.100;2023-02-26T15:31:01;1.90;99.90
14119;DHT22;7138;49.246;9.100;2023-02-26T15:33:31;2.10;99.90
14119;DHT22;7138;49.246;9.100;2023-02-26T15:35:59;2.40;99.90
14119;DHT22;7138;49.246;9.100;2023-02-26T15:38:27;2.30;99.90
14119;DHT22;7138;49.246;9.100;2023-02-26T15:40:55;2.20;99.90
14119;DHT22;7138;49.246;9.100;2023-02-26T15:43:27;2.00;99.90
14119;DHT22;7138;49.246;9.100;2023-02-26T15:45:55;1.80;99.90
14119;DHT22;7138;49.246;9.100;2023-02-26T15:48:26;1.70;99.90
14119;DHT22;7138;49.246;9.100;2023-02-26T15:50:57;1.70;99.90
14119;DHT22;7138;49.246;9.100;2023-02-26T15:53:29;1.60;99.90
14119;DHT22;7138;49.246;9.100;2023-02-26T15:56:00;1.60;99.90
14119;DHT22;7138;49.246;9.100;2023-02-26T15:58:34;1.50;99.90
14119;DHT22;7138;49.246;9.100;2023-02-26T16:01:04;1.50;99.90
14119;DHT22;7138;49.246;9.100;2023-02-26T16:03:33;1.50;99.90
14119;DHT22;7138;49.246;9.100;2023-02-26T16:06:01;1.30;99.90
14119;DHT22;7138;49.246;9.100;2023-02-26T16:08:28;1.30;99.90
14119;DHT22;7138;49.246;9.100;2023-02-26T16:11:00;1.30;99.90
14119;DHT22;7138;49.246;9.100;2023-02-26T16:13:29;1.30;99.90
14119;DHT22;7138;49.246;9.100;2023-02-26T16:16:03;1.40;99.90
14119;DHT22;7138;49.246;9.100;2023-02-26T16:18:33;1.40;99.90
14119;DHT22;7138;49.246;9.100;2023-02-26T16:21:01;1.50;99.90
14119;DHT22;7138;49.246;9.100;2023-02-26T16:23:38;1.40;99.90
14119;DHT22;7138;49.246;9.100;2023-02-26T16:26:14;1.40;99.90
14119;DHT22;7138;49.246;9.100;2023-02-26T16:28:45;1.40;99.90
14119;DHT22;7138;49.246;9.100;2023-02-26T16:31:17;1.40;99.90
14119;DHT22;7138;49.246;9.100;2023-02-26T16:33:53;1.40;99.90
14119;DHT22;7138;49.246;9.100;2023-02-26T16:36:24;1.40;99.90
14119;DHT22;7138;49.246;9.100;2023-02-26T16:38:59;1.40;99.90
14119;DHT22;7138;49.246;9.100;2023-02-26T16:41:30;1.40;99.90
14119;DHT22;7138;49.246;9.100;2023-02-26T16:44:01;1.40;99.90